createdAt,value
2019-03-12T00:01:10.856Z,0.67
2019-03-12T00:03:39.642Z,0.69
2019-03-12T00:06:07.977Z,0.67
2019-03-12T00:08:36.575Z,0.68
2019-03-12T00:11:05.212Z,0.66
2019-03-12T00:13:33.983Z,0.62
2019-03-12T00:16:02.600Z,0.62
2019-03-12T00:18:30.853Z,0.64
2019-03-12T00:20:59.100Z,0.61
2019-03-12T00:23:27.750Z,0.61
2019-03-12T00:25:55.982Z,0.58
2019-03-12T00:28:23.904Z,0.55
2019-03-12T00:30:52.651Z,0.58
2019-03-12T00:33:21.469Z,0.56
2019-03-12T00:35:50.026Z,0.49
2019-03-12T00:38:18.367Z,0.43
2019-03-12T00:40:46.616Z,0.31
2019-03-12T00:43:15.251Z,0.32
2019-03-12T00:45:43.518Z,0.26
2019-03-12T00:48:12.125Z,0.16
2019-03-12T00:50:42.017Z,0.20
2019-03-12T00:53:10.001Z,0.17
2019-03-12T00:55:38.621Z,0.23
2019-03-12T00:58:06.885Z,0.33
2019-03-12T01:01:15.589Z,0.29
2019-03-12T01:03:44.232Z,0.34
2019-03-12T01:06:12.896Z,0.34
2019-03-12T01:08:41.462Z,0.32
2019-03-12T01:11:09.941Z,0.35
2019-03-12T01:13:38.620Z,0.28
2019-03-12T01:16:07.231Z,0.25
2019-03-12T01:18:35.821Z,0.31
2019-03-12T01:21:04.340Z,0.25
2019-03-12T01:23:32.570Z,0.23
2019-03-12T01:26:00.783Z,0.17
2019-03-12T01:28:28.977Z,0.16
2019-03-12T01:30:56.916Z,0.15
2019-03-12T01:33:25.596Z,0.11
2019-03-12T01:35:54.360Z,0.05
2019-03-12T01:38:23.096Z,0.01
2019-03-12T01:40:51.727Z,0.03
2019-03-12T01:43:19.346Z,-0.08
2019-03-12T01:45:47.796Z,-0.10
2019-03-12T01:48:16.545Z,-0.09
2019-03-12T01:50:44.781Z,-0.05
2019-03-12T01:53:12.790Z,-0.04
2019-03-12T01:55:41.364Z,-0.07
2019-03-12T01:58:10.079Z,-0.07
2019-03-12T02:00:38.322Z,-0.17
2019-03-12T02:03:06.673Z,-0.27
2019-03-12T02:05:34.600Z,-0.23
2019-03-12T02:08:02.060Z,-0.28
2019-03-12T02:10:30.291Z,-0.23
2019-03-12T02:12:58.819Z,-0.22
2019-03-12T02:15:27.119Z,-0.26
2019-03-12T02:17:55.389Z,-0.23
2019-03-12T02:20:24.076Z,-0.21
2019-03-12T02:22:52.608Z,-0.20
2019-03-12T02:25:20.753Z,-0.29
2019-03-12T02:27:49.040Z,-0.31
2019-03-12T02:30:17.954Z,-0.35
2019-03-12T02:32:46.204Z,-0.34
2019-03-12T02:35:13.788Z,-0.30
2019-03-12T02:37:42.400Z,-0.29
2019-03-12T02:40:23.137Z,-0.30
2019-03-12T02:42:51.315Z,-0.29
2019-03-12T02:45:19.535Z,-0.20
2019-03-12T02:47:48.032Z,-0.13
2019-03-12T02:50:16.122Z,-0.09
2019-03-12T02:52:44.139Z,-0.09
2019-03-12T02:58:33.084Z,-0.05
2019-03-12T03:01:13.675Z,-0.13
2019-03-12T03:03:41.943Z,-0.25
2019-03-12T03:09:13.600Z,-0.24
2019-03-12T03:11:41.901Z,-0.32
2019-03-12T03:15:07.219Z,-0.35
2019-03-12T03:17:35.769Z,-0.37
2019-03-12T03:20:04.254Z,-0.57
2019-03-12T03:22:32.624Z,-0.42
2019-03-12T03:25:00.601Z,-0.35
2019-03-12T03:27:29.676Z,-0.44
2019-03-12T03:30:07.407Z,-0.51
2019-03-12T03:32:35.729Z,-0.54
2019-03-12T03:38:05.302Z,-0.57
2019-03-12T03:40:33.247Z,-0.46
2019-03-12T03:43:01.316Z,-0.40
2019-03-12T03:45:29.600Z,-0.40
2019-03-12T03:47:57.860Z,-0.52
2019-03-12T03:50:26.591Z,-0.53
2019-03-12T03:52:55.079Z,-0.56
2019-03-12T03:55:23.786Z,-0.49
2019-03-12T03:57:52.009Z,-0.52
2019-03-12T04:00:20.028Z,-0.56
2019-03-12T04:02:48.397Z,-0.54
2019-03-12T04:05:17.323Z,-0.58
2019-03-12T04:07:45.361Z,-0.58
2019-03-12T04:10:14.286Z,-0.60
2019-03-12T04:12:42.836Z,-0.52
2019-03-12T04:15:11.162Z,-0.57
2019-03-12T04:17:39.347Z,-0.60
2019-03-12T04:20:19.315Z,-0.61
2019-03-12T04:22:47.587Z,-0.64
2019-03-12T04:25:15.781Z,-0.60
2019-03-12T04:27:44.132Z,-0.56
2019-03-12T04:33:52.381Z,-0.57
2019-03-12T04:36:21.047Z,-0.59
2019-03-12T04:38:49.302Z,-0.64
2019-03-12T04:41:17.897Z,-0.61
2019-03-12T04:43:45.771Z,-0.70
2019-03-12T04:46:13.644Z,-0.66
2019-03-12T04:48:42.433Z,-0.60
2019-03-12T04:51:10.715Z,-0.61
2019-03-12T04:53:39.297Z,-0.47
2019-03-12T04:56:07.845Z,-0.54
2019-03-12T04:58:36.584Z,-0.55
2019-03-12T05:01:04.877Z,-0.50
2019-03-12T05:03:32.859Z,-0.47
2019-03-12T05:06:01.042Z,-0.48
2019-03-12T05:08:29.001Z,-0.51
2019-03-12T05:10:57.627Z,-0.58
2019-03-12T05:13:25.880Z,-0.69
2019-03-12T05:15:54.277Z,-0.61
2019-03-12T05:18:23.259Z,-0.63
2019-03-12T05:20:51.466Z,-0.64
2019-03-12T05:23:20.048Z,-0.74
2019-03-12T05:25:48.588Z,-0.80
2019-03-12T05:28:17.211Z,-0.81
2019-03-12T05:30:45.536Z,-0.85
2019-03-12T05:33:14.217Z,-0.84
2019-03-12T05:35:42.863Z,-0.93
2019-03-12T05:38:11.387Z,-0.99
2019-03-12T05:40:39.633Z,-0.99
2019-03-12T05:43:08.267Z,-1.01
2019-03-12T05:45:36.392Z,-0.99
2019-03-12T05:48:04.678Z,-0.95
2019-03-12T05:50:32.965Z,-0.89
2019-03-12T05:53:20.583Z,-0.79
2019-03-12T05:55:48.463Z,-0.82
2019-03-12T05:58:17.048Z,-0.87
2019-03-12T06:00:45.413Z,-0.79
2019-03-12T06:03:33.133Z,-0.80
2019-03-12T06:06:01.401Z,-0.88
2019-03-12T06:08:29.643Z,-0.90
2019-03-12T06:10:57.493Z,-0.90
2019-03-12T06:13:26.182Z,-0.90
2019-03-12T06:15:54.710Z,-0.91
2019-03-12T06:18:23.353Z,-0.86
2019-03-12T06:20:51.957Z,-0.87
2019-03-12T06:23:20.362Z,-0.97
2019-03-12T06:25:48.788Z,-0.91
2019-03-12T06:28:17.215Z,-0.92
2019-03-12T06:31:23.946Z,-0.85
2019-03-12T06:34:11.398Z,-0.68
2019-03-12T06:36:47.342Z,-0.52
2019-03-12T06:39:34.698Z,-0.54
2019-03-12T06:42:21.747Z,-0.58
2019-03-12T06:45:09.104Z,-0.63
2019-03-12T06:47:56.802Z,-0.52
2019-03-12T06:50:58.772Z,-0.45
2019-03-12T06:53:36.496Z,-0.52
2019-03-12T06:56:23.531Z,-0.53
2019-03-12T06:59:10.528Z,-0.56
2019-03-12T07:01:58.429Z,-0.47
2019-03-12T07:04:45.798Z,-0.46
2019-03-12T07:07:33.247Z,-0.48
2019-03-12T07:10:32.827Z,-0.46
2019-03-12T07:13:20.727Z,-0.55
2019-03-12T07:16:08.611Z,-0.52
2019-03-12T07:18:55.577Z,-0.53
2019-03-12T07:21:43.028Z,-0.53
2019-03-12T07:24:30.422Z,-0.49
2019-03-12T07:27:18.371Z,-0.39
2019-03-12T07:30:05.781Z,-0.36
2019-03-12T07:32:56.065Z,-0.40
2019-03-12T07:35:48.614Z,-0.39
2019-03-12T07:38:36.357Z,-0.39
2019-03-12T07:41:31.975Z,-0.30
2019-03-12T07:44:16.801Z,-0.25
2019-03-12T07:47:04.723Z,-0.10
2019-03-12T07:49:40.786Z,-0.05
2019-03-12T07:52:28.123Z,0.12
2019-03-12T07:55:15.646Z,0.28
2019-03-12T07:58:03.553Z,0.42
2019-03-12T08:01:09.967Z,0.49
2019-03-12T08:03:59.185Z,0.56
2019-03-12T08:06:42.135Z,0.63
2019-03-12T08:09:16.305Z,0.74
2019-03-12T08:11:59.637Z,0.84
2019-03-12T08:14:47.049Z,0.95
2019-03-12T08:17:34.458Z,1.08
2019-03-12T08:20:22.307Z,1.22
2019-03-12T08:23:10.120Z,1.32
2019-03-12T08:25:57.948Z,1.45
2019-03-12T08:28:45.363Z,1.59
2019-03-12T08:31:32.667Z,1.69
2019-03-12T08:34:20.413Z,1.73
2019-03-12T08:37:07.801Z,1.81
2019-03-12T08:40:07.640Z,1.89
2019-03-12T08:42:55.124Z,1.97
2019-03-12T08:45:45.362Z,2.19
2019-03-12T08:48:38.898Z,2.33
2019-03-12T08:51:26.060Z,2.50
2019-03-12T08:54:13.898Z,2.79
2019-03-12T08:57:01.673Z,3.02
2019-03-12T09:00:07.797Z,3.17
2019-03-12T09:02:55.549Z,3.34
2019-03-12T09:05:43.037Z,3.58
2019-03-12T09:08:30.839Z,3.84
2019-03-12T09:11:18.805Z,4.24
2019-03-12T09:14:06.647Z,4.28
2019-03-12T09:16:54.098Z,4.41
2019-03-12T09:19:41.902Z,4.46
2019-03-12T09:22:29.702Z,4.19
2019-03-12T09:25:17.127Z,4.24
2019-03-12T09:28:23.858Z,4.45
2019-03-12T09:31:15.593Z,4.62
2019-03-12T09:33:52.929Z,4.93
2019-03-12T09:36:40.726Z,4.95
2019-03-12T09:39:28.530Z,5.09
2019-03-12T09:42:35.038Z,5.08
2019-03-12T09:45:22.735Z,5.33
2019-03-12T09:48:09.769Z,5.68
2019-03-12T09:50:55.117Z,6.30
2019-03-12T09:53:42.588Z,6.64
2019-03-12T09:56:22.167Z,6.86
2019-03-12T09:59:09.888Z,7.47
2019-03-12T10:01:59.514Z,7.70
2019-03-12T10:04:52.940Z,7.69
2019-03-12T10:07:40.631Z,7.65
2019-03-12T10:10:28.157Z,7.56
2019-03-12T10:13:15.582Z,7.64
2019-03-12T10:16:03.278Z,8.02
2019-03-12T10:18:50.864Z,8.16
2019-03-12T10:21:29.682Z,8.05
2019-03-12T10:24:17.183Z,8.27
2019-03-12T10:27:04.577Z,8.52
2019-03-12T10:29:52.546Z,8.54
2019-03-12T10:32:40.262Z,8.86
2019-03-12T10:35:28.279Z,8.67
2019-03-12T10:41:29.810Z,8.55
2019-03-12T10:44:08.675Z,9.21
2019-03-12T10:46:55.757Z,9.55
2019-03-12T10:49:36.690Z,9.70
2019-03-12T10:52:03.917Z,9.67
2019-03-12T10:54:32.239Z,9.76
2019-03-12T10:57:00.972Z,9.96
2019-03-12T10:59:29.249Z,10.04
2019-03-12T11:01:57.112Z,10.35
2019-03-12T11:04:24.998Z,10.61
2019-03-12T11:06:53.679Z,10.94
2019-03-12T11:09:22.619Z,11.29
2019-03-12T11:11:51.359Z,10.84
2019-03-12T11:14:19.622Z,10.89
2019-03-12T11:19:30.032Z,10.35
2019-03-12T11:21:58.743Z,9.93
2019-03-12T11:24:30.051Z,9.13
2019-03-12T11:27:17.723Z,9.13
2019-03-12T11:29:46.429Z,8.73
2019-03-12T11:32:14.364Z,8.50
2019-03-12T11:34:42.650Z,8.45
2019-03-12T11:37:10.180Z,8.27
2019-03-12T11:39:38.445Z,8.64
2019-03-12T11:42:09.023Z,8.54
2019-03-12T11:44:38.681Z,8.35
2019-03-12T11:47:06.949Z,8.65
2019-03-12T11:49:35.238Z,8.35
2019-03-12T11:52:03.992Z,8.22
2019-03-12T11:54:32.686Z,8.09
2019-03-12T11:57:00.559Z,8.17
2019-03-12T11:59:28.444Z,8.62
2019-03-12T12:01:59.389Z,8.64
2019-03-12T12:04:28.005Z,8.75
2019-03-12T12:06:56.669Z,8.93
2019-03-12T12:09:24.634Z,8.71
2019-03-12T12:11:52.625Z,8.97
2019-03-12T12:14:20.834Z,9.20
2019-03-12T12:16:49.469Z,8.96
2019-03-12T12:19:18.009Z,8.82
2019-03-12T12:21:46.696Z,8.96
2019-03-12T12:24:15.268Z,9.04
2019-03-12T12:26:43.860Z,9.73
2019-03-12T12:29:12.119Z,10.16
2019-03-12T12:31:40.510Z,10.14
2019-03-12T12:34:08.445Z,10.00
2019-03-12T12:36:37.078Z,9.82
2019-03-12T12:42:07.489Z,10.21
2019-03-12T12:44:36.185Z,10.00
2019-03-12T12:47:04.767Z,9.67
2019-03-12T12:49:33.376Z,9.92
2019-03-12T12:52:01.881Z,9.81
2019-03-12T12:54:29.504Z,10.17
2019-03-12T12:56:58.260Z,11.03
2019-03-12T12:59:26.923Z,10.05
2019-03-12T13:01:55.188Z,10.04
2019-03-12T13:04:23.425Z,9.78
2019-03-12T13:06:51.803Z,9.59
2019-03-12T13:09:20.501Z,9.88
2019-03-12T13:11:48.933Z,10.23
2019-03-12T13:14:17.308Z,10.10
2019-03-12T13:16:45.588Z,10.33
2019-03-12T13:19:13.780Z,10.59
2019-03-12T13:21:42.374Z,10.49
2019-03-12T13:24:10.743Z,10.52
2019-03-12T13:26:38.683Z,10.66
2019-03-12T13:29:07.019Z,10.72
2019-03-12T13:31:35.656Z,10.85
2019-03-12T13:34:03.565Z,11.19
2019-03-12T13:36:32.198Z,11.25
2019-03-12T13:39:00.950Z,10.78
2019-03-12T13:41:28.954Z,10.04
2019-03-12T13:43:57.429Z,9.80
2019-03-12T13:46:25.718Z,9.15
2019-03-12T13:48:53.561Z,8.86
2019-03-12T13:51:21.750Z,8.64
2019-03-12T13:53:50.401Z,8.35
2019-03-12T13:56:18.678Z,7.95
2019-03-12T13:58:46.910Z,7.61
2019-03-12T14:01:15.548Z,7.46
2019-03-12T14:03:44.380Z,7.37
2019-03-12T14:06:11.975Z,7.39
2019-03-12T14:08:40.350Z,7.23
2019-03-12T14:11:08.627Z,7.10
2019-03-12T14:13:36.896Z,7.03
2019-03-12T14:16:05.624Z,6.79
2019-03-12T14:18:33.974Z,6.70
2019-03-12T14:21:21.304Z,6.73
2019-03-12T14:23:54.499Z,6.85
2019-03-12T14:26:22.676Z,7.03
2019-03-12T14:28:52.589Z,7.34
2019-03-12T14:31:27.750Z,7.28
2019-03-12T14:33:56.413Z,7.20
2019-03-12T14:36:24.384Z,7.16
2019-03-12T14:38:52.673Z,7.07
2019-03-12T14:41:20.531Z,7.10
2019-03-12T14:43:49.183Z,7.06
2019-03-12T14:49:37.375Z,7.19
2019-03-12T14:52:44.066Z,7.19
2019-03-12T14:55:12.844Z,7.35
2019-03-12T14:57:41.138Z,7.51
2019-03-12T15:00:53.213Z,7.42
2019-03-12T15:03:22.019Z,7.52
2019-03-12T15:05:50.375Z,7.66
2019-03-12T15:08:18.613Z,7.83
2019-03-12T15:10:46.885Z,8.03
2019-03-12T15:13:15.344Z,8.26
2019-03-12T15:15:43.984Z,8.51
2019-03-12T15:18:11.924Z,9.09
2019-03-12T15:20:40.664Z,9.33
2019-03-12T15:23:08.896Z,9.31
2019-03-12T15:25:37.284Z,9.67
2019-03-12T15:28:05.514Z,10.00
2019-03-12T15:30:34.214Z,9.64
2019-03-12T15:33:02.188Z,9.40
2019-03-12T15:35:30.593Z,8.92
2019-03-12T15:37:58.955Z,8.61
2019-03-12T15:40:26.943Z,8.51
2019-03-12T15:42:54.976Z,9.01
2019-03-12T15:45:22.975Z,9.43
2019-03-12T15:47:51.679Z,9.91
2019-03-12T15:50:20.275Z,10.63
2019-03-12T15:52:48.951Z,10.72
2019-03-12T15:55:17.239Z,10.91
2019-03-12T16:00:46.675Z,10.76
2019-03-12T16:03:14.658Z,11.14
2019-03-12T16:05:42.541Z,11.28
2019-03-12T16:08:10.894Z,11.00
2019-03-12T16:10:39.187Z,10.05
2019-03-12T16:13:07.987Z,8.78
2019-03-12T16:15:37.794Z,8.13
2019-03-12T16:18:14.674Z,7.63
2019-03-12T16:20:54.642Z,6.89
2019-03-12T16:23:22.986Z,6.54
2019-03-12T16:25:51.590Z,6.15
2019-03-12T16:28:19.856Z,5.86
2019-03-12T16:30:47.408Z,5.77
2019-03-12T16:33:15.686Z,5.73
2019-03-12T16:35:43.574Z,5.74
2019-03-12T16:38:12.289Z,5.72
2019-03-12T16:40:40.305Z,5.56
2019-03-12T16:43:07.493Z,5.48
2019-03-12T16:45:35.714Z,5.41
2019-03-12T16:48:04.003Z,5.36
2019-03-12T16:50:32.266Z,5.25
2019-03-12T16:53:00.900Z,5.11
2019-03-12T16:55:29.238Z,5.00
2019-03-12T16:57:56.857Z,4.93
2019-03-12T17:00:25.681Z,4.87
2019-03-12T17:02:53.971Z,4.77
2019-03-12T17:05:21.557Z,4.66
2019-03-12T17:07:50.428Z,4.53
2019-03-12T17:10:18.826Z,4.43
2019-03-12T17:12:47.719Z,4.32
2019-03-12T17:15:16.559Z,4.27
2019-03-12T17:17:45.153Z,4.21
2019-03-12T17:23:14.367Z,4.24
2019-03-12T17:25:43.212Z,4.21
2019-03-12T17:28:11.076Z,4.29
2019-03-12T17:30:39.352Z,4.28
2019-03-12T17:33:07.251Z,4.29
2019-03-12T17:35:47.661Z,4.33
2019-03-12T17:38:15.744Z,4.28
2019-03-12T17:40:44.043Z,4.27
2019-03-12T17:43:12.742Z,4.34
2019-03-12T17:45:41.483Z,4.17
2019-03-12T17:48:10.047Z,4.15
2019-03-12T17:50:37.646Z,4.11
2019-03-12T17:53:06.095Z,4.02
2019-03-12T17:55:34.460Z,4.06
2019-03-12T17:58:03.451Z,3.99
2019-03-12T18:00:32.400Z,3.98
2019-03-12T18:03:00.854Z,4.04
2019-03-12T18:05:29.472Z,3.97
2019-03-12T18:07:57.708Z,3.98
2019-03-12T18:10:25.910Z,3.98
2019-03-12T18:12:54.261Z,3.98
2019-03-12T18:15:22.139Z,3.97
2019-03-12T18:17:50.126Z,3.95
2019-03-12T18:20:18.055Z,3.95
2019-03-12T18:22:46.371Z,3.88
2019-03-12T18:25:33.699Z,3.81
2019-03-12T18:28:02.378Z,3.78
2019-03-12T18:30:30.747Z,3.87
2019-03-12T18:32:59.339Z,3.97
2019-03-12T18:35:27.739Z,4.08
2019-03-12T18:37:56.466Z,4.04
2019-03-12T18:40:24.086Z,3.99
2019-03-12T18:42:52.991Z,4.04
2019-03-12T18:45:21.792Z,4.01
2019-03-12T18:47:50.347Z,3.94
2019-03-12T18:53:20.090Z,3.93
2019-03-12T18:56:17.977Z,3.94
2019-03-12T18:58:46.354Z,3.89
2019-03-12T19:01:15.887Z,3.86
2019-03-12T19:03:44.631Z,3.89
2019-03-12T19:06:12.880Z,3.90
2019-03-12T19:08:47.536Z,3.95
2019-03-12T19:11:19.264Z,3.89
2019-03-12T19:13:47.702Z,3.90
2019-03-12T19:16:16.440Z,3.84
2019-03-12T19:18:45.225Z,3.84
2019-03-12T19:21:13.554Z,3.85
2019-03-12T19:23:41.675Z,3.82
2019-03-12T19:26:13.046Z,3.90
2019-03-12T19:28:41.605Z,3.89
2019-03-12T19:31:29.512Z,3.88
2019-03-12T19:36:40.598Z,3.88
2019-03-12T19:39:11.188Z,3.86
2019-03-12T19:41:39.966Z,3.90
2019-03-12T19:44:08.434Z,3.90
2019-03-12T19:46:36.416Z,3.95
2019-03-12T19:49:04.058Z,3.95
2019-03-12T19:51:32.455Z,3.95
2019-03-12T19:54:00.866Z,3.90
2019-03-12T19:56:29.350Z,3.92
2019-03-12T19:58:57.616Z,4.02
2019-03-12T20:01:25.756Z,4.10
2019-03-12T20:03:55.180Z,4.11
2019-03-12T20:09:06.222Z,4.11
2019-03-12T20:12:13.788Z,4.12
2019-03-12T20:15:10.204Z,4.20
2019-03-12T20:18:17.310Z,4.14
2019-03-12T20:21:24.144Z,4.24
2019-03-12T20:24:31.168Z,4.17
2019-03-12T20:27:37.880Z,4.10
2019-03-12T20:30:44.949Z,4.05
2019-03-12T20:33:51.650Z,3.99
2019-03-12T20:36:58.329Z,4.07
2019-03-12T20:40:05.343Z,3.99
2019-03-12T20:43:12.036Z,3.95
2019-03-12T20:46:09.384Z,3.90
2019-03-12T20:49:23.580Z,3.90
2019-03-12T20:52:30.222Z,3.95
2019-03-12T20:55:36.930Z,3.98
2019-03-12T20:58:43.696Z,3.95
2019-03-12T21:01:50.359Z,3.88
2019-03-12T21:04:57.060Z,3.96
2019-03-12T21:08:03.740Z,3.79
2019-03-12T21:10:43.890Z,3.78
2019-03-12T21:13:50.651Z,3.78
2019-03-12T21:16:56.676Z,3.74
2019-03-12T21:19:36.170Z,3.67
2019-03-12T21:22:42.909Z,3.66
2019-03-12T21:25:49.637Z,3.68
2019-03-12T21:28:55.695Z,3.62
2019-03-12T21:31:24.050Z,3.61
2019-03-12T21:33:52.693Z,3.66
2019-03-12T21:36:21.290Z,3.67
2019-03-12T21:38:49.185Z,3.64
2019-03-12T21:41:17.132Z,3.58
2019-03-12T21:43:45.766Z,3.54
2019-03-12T21:46:14.197Z,3.46
2019-03-12T21:48:42.794Z,3.49
2019-03-12T21:51:11.420Z,3.44
2019-03-12T21:53:40.266Z,3.48
2019-03-12T21:56:08.151Z,3.42
2019-03-12T21:58:36.382Z,3.39
2019-03-12T22:03:43.846Z,3.41
2019-03-12T22:06:12.106Z,3.47
2019-03-12T22:08:39.711Z,3.43
2019-03-12T22:11:08.076Z,3.44
2019-03-12T22:13:36.374Z,3.47
2019-03-12T22:16:04.320Z,3.41
2019-03-12T22:18:32.632Z,3.49
2019-03-12T22:21:00.635Z,3.45
2019-03-12T22:23:32.880Z,3.50
2019-03-12T22:26:01.140Z,3.42
2019-03-12T22:28:29.841Z,3.30
2019-03-12T22:30:58.211Z,3.23
2019-03-12T22:33:26.734Z,3.28
2019-03-12T22:35:54.956Z,3.22
2019-03-12T22:38:23.268Z,3.18
2019-03-12T22:40:51.455Z,3.20
2019-03-12T22:43:20.262Z,3.19
2019-03-12T22:45:48.242Z,3.11
2019-03-12T22:48:16.700Z,3.03
2019-03-12T22:50:45.298Z,3.03
2019-03-12T22:53:13.648Z,3.01
2019-03-12T22:55:41.542Z,2.94
2019-03-12T22:58:10.211Z,2.84
2019-03-12T23:00:39.670Z,2.84
2019-03-12T23:03:08.030Z,2.73
2019-03-12T23:05:36.621Z,2.65
2019-03-12T23:08:04.923Z,2.61
2019-03-12T23:10:33.216Z,2.57
2019-03-12T23:13:01.483Z,2.67
2019-03-12T23:15:29.839Z,2.79
2019-03-12T23:17:58.114Z,2.83
2019-03-12T23:20:26.410Z,2.78
2019-03-12T23:22:54.696Z,2.80
2019-03-12T23:25:22.986Z,2.95
2019-03-12T23:27:51.224Z,3.00
2019-03-12T23:30:18.702Z,3.07
2019-03-12T23:32:47.025Z,3.11
2019-03-12T23:35:15.256Z,3.19
2019-03-12T23:37:43.256Z,3.25
2019-03-12T23:40:11.277Z,3.38
2019-03-12T23:42:39.519Z,3.44
2019-03-12T23:48:08.825Z,3.62
2019-03-12T23:50:37.021Z,3.55
2019-03-12T23:53:05.397Z,3.54
2019-03-12T23:55:33.581Z,3.63
2019-03-12T23:58:01.837Z,3.77
